Time;durP1;ratioP1;P1;durP2;ratioP2;P2;SDS_P1;SDS_P2;PMS_P1;PMS_P2;Temp;Humidity;BMP_temperature;BMP_pressure;BME280_temperature;BME280_humidity;BME280_pressure;Samples;Min_cycle;Max_cycle;Signal;HPM_P1;HPM_P2
2022/09/12 00:00:30;;;;;;;30.95;19.48;;;16.20;99.90;;;;;;5033154;28;20037;-68
2022/09/12 00:02:57;;;;;;;23.65;17.58;;;16.10;99.90;;;;;;5033298;28;20096;-68
2022/09/12 00:05:24;;;;;;;24.75;17.48;;;16.10;99.90;;;;;;5032355;28;20029;-68
2022/09/12 00:07:50;;;;;;;21.52;17.48;;;16.10;99.90;;;;;;5033256;28;20033;-70
2022/09/12 00:10:16;;;;;;;22.85;16.70;;;16.10;99.90;;;;;;5033550;28;20397;-67
2022/09/12 00:12:41;;;;;;;23.10;16.90;;;16.10;99.90;;;;;;5030406;28;20034;-68
2022/09/12 00:15:08;;;;;;;23.17;15.50;;;16.10;99.90;;;;;;5033547;28;20031;-68
2022/09/12 00:17:35;;;;;;;22.02;15.68;;;16.10;99.90;;;;;;5033125;28;20033;-67
2022/09/12 00:20:02;;;;;;;17.20;12.02;;;16.10;99.90;;;;;;5030151;28;20048;-67
2022/09/12 00:22:27;;;;;;;20.67;15.57;;;16.10;99.90;;;;;;5032661;28;20009;-69
2022/09/12 00:24:53;;;;;;;21.45;15.88;;;16.10;99.90;;;;;;5032857;28;20442;-66
2022/09/12 00:27:18;;;;;;;20.23;15.48;;;16.10;99.90;;;;;;5033072;28;20032;-67
2022/09/12 00:29:44;;;;;;;18.13;14.57;;;16.10;99.90;;;;;;5033306;28;20032;-68
2022/09/12 00:32:10;;;;;;;20.55;15.10;;;16.10;99.90;;;;;;5032706;28;20048;-67
2022/09/12 00:34:35;;;;;;;20.80;16.00;;;16.00;99.90;;;;;;5032855;28;20501;-67
2022/09/12 00:37:02;;;;;;;19.17;14.63;;;16.00;99.90;;;;;;5032672;28;20032;-67
2022/09/12 00:39:27;;;;;;;21.45;15.60;;;16.00;99.90;;;;;;5032372;28;20021;-68
2022/09/12 00:41:53;;;;;;;25.67;15.77;;;15.90;99.90;;;;;;5032228;28;20045;-67
2022/09/12 00:44:21;;;;;;;25.52;15.55;;;15.90;99.90;;;;;;5032918;28;20024;-66
2022/09/12 00:46:49;;;;;;;22.92;14.63;;;15.70;99.90;;;;;;5032771;28;20033;-68
2022/09/12 00:49:28;;;;;;;24.75;13.20;;;15.60;99.90;;;;;;5032997;28;20041;-67
2022/09/12 00:52:02;;;;;;;17.88;13.27;;;15.70;99.90;;;;;;5031428;28;20033;-67
2022/09/12 00:54:35;;;;;;;22.70;14.40;;;15.70;99.90;;;;;;5030868;28;20029;-67
2022/09/12 00:57:05;;;;;;;18.67;14.35;;;15.70;99.90;;;;;;5032929;28;20385;-66
2022/09/12 00:59:40;;;;;;;22.50;15.00;;;15.70;99.90;;;;;;5032963;28;20014;-66
2022/09/12 01:02:07;;;;;;;21.08;15.05;;;15.70;99.90;;;;;;5030538;28;20033;-68
2022/09/12 01:04:36;;;;;;;23.23;15.77;;;15.60;99.90;;;;;;5032573;28;20018;-67
2022/09/12 01:07:04;;;;;;;23.25;15.57;;;15.60;99.90;;;;;;5030814;28;20025;-67
2022/09/12 01:09:30;;;;;;;23.27;16.85;;;15.60;99.90;;;;;;5032464;28;20458;-67
2022/09/12 01:11:57;;;;;;;22.65;15.85;;;15.50;99.90;;;;;;5030564;28;20045;-68
2022/09/12 01:14:23;;;;;;;22.48;16.15;;;15.50;99.90;;;;;;5032696;28;20025;-67
2022/09/12 01:16:50;;;;;;;22.88;15.48;;;15.50;99.90;;;;;;5032142;28;20024;-67
2022/09/12 01:19:45;;;;;;;23.75;17.33;;;15.50;99.90;;;;;;5032625;28;20022;-66
2022/09/12 01:22:22;;;;;;;22.58;16.50;;;15.50;99.90;;;;;;5030500;28;20079;-67
2022/09/12 01:24:52;;;;;;;25.40;16.85;;;15.50;99.90;;;;;;5028124;28;20029;-67
2022/09/12 01:27:23;;;;;;;22.73;15.50;;;15.50;99.90;;;;;;5030235;28;20018;-68
2022/09/12 01:30:17;;;;;;;19.40;15.43;;;15.50;99.90;;;;;;5032048;28;20478;-69
2022/09/12 01:32:50;;;;;;;23.52;15.98;;;15.40;99.90;;;;;;5029637;28;20057;-67
2022/09/12 01:35:34;;;;;;;25.83;16.92;;;15.40;99.90;;;;;;5031909;28;20034;-67
2022/09/12 01:38:28;;;;;;;22.10;15.07;;;15.40;99.90;;;;;;5030900;28;20021;-68
2022/09/12 01:41:12;;;;;;;23.80;15.60;;;15.40;99.90;;;;;;5028328;28;20489;-67
2022/09/12 01:44:11;;;;;;;25.48;15.90;;;15.30;99.90;;;;;;5031289;28;20033;-66
2022/09/12 01:47:01;;;;;;;21.70;15.05;;;15.20;99.90;;;;;;5031598;28;20030;-67
2022/09/12 01:49:53;;;;;;;25.75;14.60;;;15.10;99.90;;;;;;5030409;28;20038;-66
2022/09/12 01:52:36;;;;;;;24.60;14.43;;;15.20;99.90;;;;;;5032141;28;20038;-67
2022/09/12 01:55:22;;;;;;;31.75;16.40;;;15.20;99.90;;;;;;5036210;28;20017;-69
2022/09/12 01:57:50;;;;;;;23.20;15.77;;;15.20;99.90;;;;;;5034308;28;20037;-67
2022/09/12 02:00:16;;;;;;;23.05;16.27;;;15.20;99.90;;;;;;5035544;28;20032;-67
2022/09/12 02:03:01;;;;;;;20.55;14.75;;;15.20;99.90;;;;;;5035357;28;20033;-67
2022/09/12 02:05:32;;;;;;;27.83;15.60;;;15.10;99.90;;;;;;5032517;28;20018;-68
2022/09/12 02:08:09;;;;;;;27.15;15.52;;;15.10;99.90;;;;;;5035814;28;20021;-67
2022/09/12 02:10:49;;;;;;;22.55;14.32;;;15.10;99.90;;;;;;5033557;28;20470;-71
2022/09/12 02:13:24;;;;;;;21.40;15.45;;;15.10;99.90;;;;;;5032753;28;20120;-68
2022/09/12 02:15:58;;;;;;;24.35;14.70;;;15.10;99.90;;;;;;5034182;28;20049;-67
2022/09/12 02:18:26;;;;;;;24.33;16.17;;;15.10;99.90;;;;;;5033175;28;20018;-69
2022/09/12 02:20:55;;;;;;;30.25;17.75;;;15.00;99.90;;;;;;5035786;28;20037;-70
2022/09/12 02:23:26;;;;;;;22.95;16.10;;;15.00;99.90;;;;;;5035623;28;20014;-67
2022/09/12 02:26:01;;;;;;;23.20;15.65;;;14.90;99.90;;;;;;5032933;28;20492;-66
2022/09/12 02:28:31;;;;;;;25.55;15.23;;;14.90;99.90;;;;;;5032685;28;20025;-67
2022/09/12 02:31:06;;;;;;;21.45;15.13;;;15.00;99.90;;;;;;5034120;28;20022;-66
2022/09/12 02:33:42;;;;;;;27.55;16.67;;;15.00;99.90;;;;;;5032299;28;20017;-66
2022/09/12 02:36:26;;;;;;;26.45;17.88;;;15.00;99.90;;;;;;5032721;28;20555;-66
2022/09/12 02:38:54;;;;;;;25.25;17.25;;;15.00;99.90;;;;;;5032236;28;20504;-66
2022/09/12 02:41:20;;;;;;;24.88;16.70;;;15.00;99.90;;;;;;5034566;28;20076;-66
2022/09/12 02:43:48;;;;;;;23.27;15.80;;;15.00;99.90;;;;;;5034903;28;20563;-68
2022/09/12 02:46:32;;;;;;;23.38;14.70;;;15.00;99.90;;;;;;5034205;28;20513;-67
2022/09/12 02:48:58;;;;;;;20.92;15.55;;;15.00;99.90;;;;;;5034089;28;20021;-67
2022/09/12 02:51:24;;;;;;;23.75;17.08;;;15.00;99.90;;;;;;5033763;28;20382;-69
2022/09/12 02:53:52;;;;;;;26.60;18.73;;;15.00;99.90;;;;;;5034625;28;20421;-66
2022/09/12 02:56:27;;;;;;;31.60;19.08;;;14.90;99.90;;;;;;5034205;28;20100;-66
2022/09/12 02:58:56;;;;;;;33.40;22.70;;;14.80;99.90;;;;;;5034278;28;20311;-66
2022/09/12 03:01:43;;;;;;;26.60;20.05;;;14.80;99.90;;;;;;5029544;28;20116;-66
2022/09/12 03:04:39;;;;;;;29.27;18.20;;;14.70;99.90;;;;;;5033029;28;20033;-66
2022/09/12 03:07:30;;;;;;;22.58;16.58;;;14.70;99.90;;;;;;5032101;28;20028;-66
2022/09/12 03:10:02;;;;;;;30.35;18.02;;;14.70;99.90;;;;;;5034140;28;20084;-66
2022/09/12 03:13:12;;;;;;;28.03;18.10;;;14.80;99.90;;;;;;5032687;28;20038;-66
2022/09/12 03:15:59;;;;;;;24.27;15.35;;;14.80;99.90;;;;;;5027825;28;20557;-67
2022/09/12 03:18:39;;;;;;;23.67;16.23;;;14.80;99.90;;;;;;5032142;28;20025;-68
2022/09/12 03:21:16;;;;;;;20.70;16.05;;;14.80;99.90;;;;;;5029843;28;20136;-68
2022/09/12 03:24:04;;;;;;;26.05;17.23;;;14.80;99.90;;;;;;5033205;28;20036;-71
2022/09/12 03:27:02;;;;;;;21.67;15.13;;;14.80;99.90;;;;;;5031455;28;20493;-68
2022/09/12 03:29:29;;;;;;;22.48;16.15;;;14.80;99.90;;;;;;5033629;28;20076;-68
2022/09/12 03:31:57;;;;;;;24.05;15.38;;;14.80;99.90;;;;;;5033701;28;20591;-69
2022/09/12 03:34:25;;;;;;;24.30;14.95;;;14.90;99.90;;;;;;5034222;28;20025;-69
2022/09/12 03:36:54;;;;;;;24.65;17.67;;;14.90;99.90;;;;;;5031776;28;20058;-67
2022/09/12 03:39:23;;;;;;;33.25;19.00;;;14.80;99.90;;;;;;5034050;28;20024;-67
2022/09/12 03:41:49;;;;;;;31.88;17.63;;;14.80;99.90;;;;;;5031716;28;20037;-67
2022/09/12 03:44:14;;;;;;;26.20;18.45;;;14.80;99.90;;;;;;5033876;28;20105;-69
2022/09/12 03:46:40;;;;;;;31.48;18.95;;;14.70;99.90;;;;;;5033748;28;20112;-70
2022/09/12 03:49:06;;;;;;;24.70;16.70;;;14.60;99.90;;;;;;5033695;28;20025;-68
2022/09/12 03:51:31;;;;;;;26.80;18.85;;;14.70;99.90;;;;;;5034079;28;20025;-66
2022/09/12 03:53:57;;;;;;;29.23;19.60;;;14.60;99.90;;;;;;5032434;28;20029;-67
2022/09/12 03:56:23;;;;;;;28.90;18.95;;;14.60;99.90;;;;;;5032313;28;20017;-68
2022/09/12 03:58:49;;;;;;;28.42;17.20;;;14.60;99.90;;;;;;5031004;28;20076;-69
2022/09/12 04:01:16;;;;;;;25.15;17.35;;;14.70;99.90;;;;;;5031382;28;20033;-67
2022/09/12 04:03:48;;;;;;;27.77;18.80;;;14.70;99.90;;;;;;5033316;28;20029;-68
2022/09/12 04:06:16;;;;;;;26.27;18.00;;;14.70;99.90;;;;;;5030915;28;20411;-69
2022/09/12 04:08:43;;;;;;;30.60;19.58;;;14.70;99.90;;;;;;5033528;28;20020;-67
2022/09/12 04:11:14;;;;;;;29.40;17.77;;;14.70;99.90;;;;;;5033486;28;20021;-67
2022/09/12 04:13:41;;;;;;;25.63;17.50;;;14.60;99.90;;;;;;5032718;28;20033;-68
2022/09/12 04:16:07;;;;;;;26.48;16.73;;;14.60;99.90;;;;;;5033901;28;20033;-69
2022/09/12 04:18:34;;;;;;;26.00;16.10;;;14.60;99.90;;;;;;5033902;28;20075;-68
2022/09/12 04:21:04;;;;;;;30.02;17.58;;;14.60;99.90;;;;;;5033708;28;20064;-67
2022/09/12 04:23:30;;;;;;;29.77;18.73;;;14.60;99.90;;;;;;5033505;28;20437;-68
2022/09/12 04:25:57;;;;;;;29.35;19.15;;;14.60;99.90;;;;;;5033514;28;20057;-66
2022/09/12 04:28:24;;;;;;;27.88;18.77;;;14.60;99.90;;;;;;5033537;28;20028;-67
2022/09/12 04:30:50;;;;;;;30.60;20.85;;;14.60;99.90;;;;;;5033178;28;20029;-67
2022/09/12 04:33:17;;;;;;;31.92;21.08;;;14.60;99.90;;;;;;5033210;28;20086;-66
2022/09/12 04:35:44;;;;;;;31.67;19.85;;;14.70;99.90;;;;;;5033560;28;20025;-66
2022/09/12 04:38:10;;;;;;;32.63;23.13;;;14.60;99.90;;;;;;5033428;28;20014;-66
2022/09/12 04:40:36;;;;;;;32.72;22.67;;;14.60;99.90;;;;;;5033385;28;20390;-66
2022/09/12 04:43:02;;;;;;;32.35;20.52;;;14.60;99.90;;;;;;5033206;28;20116;-65
2022/09/12 04:45:28;;;;;;;34.00;22.20;;;14.60;99.90;;;;;;5032153;28;20025;-66
2022/09/12 04:47:53;;;;;;;32.80;21.00;;;14.60;99.90;;;;;;5032841;28;20036;-67
2022/09/12 04:50:19;;;;;;;37.08;24.23;;;14.70;99.90;;;;;;5033249;28;20029;-66
2022/09/12 04:52:49;;;;;;;40.85;24.20;;;14.60;99.90;;;;;;5032563;28;20030;-67
2022/09/12 04:55:15;;;;;;;40.42;26.17;;;14.70;99.90;;;;;;5032548;28;20034;-66
2022/09/12 04:57:41;;;;;;;35.30;22.50;;;14.60;99.90;;;;;;5033378;28;20017;-66
2022/09/12 05:00:07;;;;;;;34.65;23.90;;;14.60;99.90;;;;;;5031655;28;20068;-66
2022/09/12 05:02:33;;;;;;;43.67;29.13;;;14.60;99.90;;;;;;5032572;28;20033;-66
2022/09/12 05:04:59;;;;;;;35.78;23.88;;;14.50;99.90;;;;;;5032127;28;20028;-66
2022/09/12 05:07:25;;;;;;;41.03;24.33;;;14.60;99.90;;;;;;5032019;28;20026;-66
2022/09/12 05:09:50;;;;;;;34.38;21.50;;;14.60;99.90;;;;;;5032779;28;20108;-66
2022/09/12 05:12:16;;;;;;;38.05;23.05;;;14.60;99.90;;;;;;5031235;28;20048;-66
2022/09/12 05:14:42;;;;;;;35.75;22.83;;;14.60;99.90;;;;;;5032924;28;20462;-66
2022/09/12 05:17:07;;;;;;;33.70;22.45;;;14.60;99.90;;;;;;5032855;28;20033;-66
2022/09/12 05:19:33;;;;;;;34.15;22.48;;;14.60;99.90;;;;;;5031770;28;20044;-66
2022/09/12 05:21:59;;;;;;;36.13;22.55;;;14.60;99.90;;;;;;5032745;28;20029;-66
2022/09/12 05:24:25;;;;;;;31.42;22.98;;;14.60;99.90;;;;;;5032026;28;20025;-66
2022/09/12 05:26:51;;;;;;;32.90;22.10;;;14.60;99.90;;;;;;5031556;28;20030;-66
2022/09/12 05:29:17;;;;;;;30.00;20.73;;;14.60;99.90;;;;;;5032554;28;20037;-66
2022/09/12 05:31:42;;;;;;;40.72;24.15;;;14.70;99.90;;;;;;5032137;28;20049;-67
2022/09/12 05:34:08;;;;;;;32.22;23.42;;;14.60;99.90;;;;;;5032887;28;20029;-67
2022/09/12 05:36:38;;;;;;;32.30;22.23;;;14.60;99.90;;;;;;5032158;28;20029;-67
2022/09/12 05:39:04;;;;;;;34.35;22.20;;;14.70;99.90;;;;;;5032285;28;20064;-66
2022/09/12 05:41:32;;;;;;;33.47;22.25;;;14.70;99.90;;;;;;5032075;28;20087;-67
2022/09/12 05:44:00;;;;;;;36.88;22.70;;;14.70;99.90;;;;;;5031020;28;20386;-67
2022/09/12 05:46:29;;;;;;;43.95;23.23;;;14.70;99.90;;;;;;5032482;28;20033;-67
2022/09/12 05:48:55;;;;;;;37.85;23.80;;;14.70;99.90;;;;;;5032582;28;20040;-67
2022/09/12 05:51:25;;;;;;;37.80;24.38;;;14.70;99.90;;;;;;5032323;28;20028;-67
2022/09/12 05:53:56;;;;;;;37.00;23.70;;;14.70;99.90;;;;;;5032645;28;20034;-69
2022/09/12 05:56:24;;;;;;;42.70;27.08;;;14.80;99.90;;;;;;5030598;28;20079;-67
2022/09/12 05:58:53;;;;;;;37.78;23.77;;;14.70;99.90;;;;;;5032468;28;20083;-67
2022/09/12 06:01:19;;;;;;;37.95;22.95;;;14.80;99.90;;;;;;5031290;28;20061;-67
2022/09/12 06:03:47;;;;;;;44.90;22.02;;;14.80;99.90;;;;;;5031422;28;20065;-67
2022/09/12 06:06:14;;;;;;;35.50;23.30;;;14.80;99.90;;;;;;5042572;28;20033;-66
2022/09/12 06:08:42;;;;;;;36.05;23.02;;;14.90;99.90;;;;;;5031278;28;20025;-68
2022/09/12 06:11:12;;;;;;;34.35;22.27;;;14.80;99.90;;;;;;5031109;28;20045;-66
2022/09/12 06:13:39;;;;;;;36.97;22.20;;;14.90;99.90;;;;;;5031635;28;20041;-68
2022/09/12 06:16:07;;;;;;;37.33;21.98;;;14.90;99.90;;;;;;5031486;28;20037;-68
2022/09/12 06:18:34;;;;;;;35.47;23.80;;;14.90;99.90;;;;;;5031478;28;20022;-67
2022/09/12 06:21:07;;;;;;;37.20;24.10;;;15.00;99.90;;;;;;5031336;28;20064;-66
2022/09/12 06:23:33;;;;;;;28.60;20.05;;;15.00;99.90;;;;;;5030093;28;20022;-68
2022/09/12 06:25:59;;;;;;;33.47;21.42;;;15.10;99.90;;;;;;5031117;28;20040;-67
2022/09/12 06:28:26;;;;;;;28.50;19.23;;;15.10;99.90;;;;;;5028879;28;20017;-66
2022/09/12 06:30:52;;;;;;;34.30;21.15;;;15.00;99.90;;;;;;5031690;28;20025;-67
2022/09/12 06:33:17;;;;;;;39.55;21.30;;;15.00;99.90;;;;;;5030476;28;20022;-67
2022/09/12 06:35:43;;;;;;;36.90;22.20;;;15.00;99.90;;;;;;5030730;28;20046;-67
2022/09/12 06:38:10;;;;;;;36.00;24.35;;;15.10;99.90;;;;;;5035229;28;20020;-67
2022/09/12 06:40:42;;;;;;;46.28;23.40;;;15.10;99.90;;;;;;5034338;28;20505;-67
2022/09/12 06:43:09;;;;;;;40.42;25.42;;;15.10;99.90;;;;;;5035087;28;20040;-67
2022/09/12 06:45:35;;;;;;;40.65;26.42;;;15.10;99.90;;;;;;5035129;28;20026;-70
2022/09/12 06:48:01;;;;;;;41.17;27.02;;;15.10;99.90;;;;;;5034692;28;20029;-67
2022/09/12 06:50:27;;;;;;;39.38;22.90;;;15.10;99.90;;;;;;5035134;28;20125;-69
2022/09/12 06:52:52;;;;;;;35.10;21.90;;;15.20;99.90;;;;;;5029590;28;20104;-68
2022/09/12 06:55:18;;;;;;;37.65;22.73;;;15.20;99.90;;;;;;5023652;28;20379;-67
2022/09/12 06:57:44;;;;;;;33.35;22.13;;;15.40;99.90;;;;;;5027364;28;20034;-66
2022/09/12 07:00:10;;;;;;;39.40;24.50;;;15.40;99.90;;;;;;5028982;28;20025;-67
2022/09/12 07:02:36;;;;;;;40.45;24.90;;;15.40;99.90;;;;;;5023650;28;20035;-67
2022/09/12 07:05:02;;;;;;;34.35;21.15;;;15.40;99.90;;;;;;5026188;28;20030;-68
2022/09/12 07:07:27;;;;;;;40.50;24.83;;;15.40;99.90;;;;;;5028086;28;20128;-67
2022/09/12 07:09:53;;;;;;;31.92;22.17;;;15.50;99.90;;;;;;5028797;28;20030;-67
2022/09/12 07:12:19;;;;;;;35.70;24.17;;;15.50;99.90;;;;;;5027807;28;20384;-67
2022/09/12 07:14:44;;;;;;;36.72;25.55;;;15.50;99.90;;;;;;5043163;28;20425;-67
2022/09/12 07:17:11;;;;;;;42.55;28.48;;;15.50;99.90;;;;;;5037551;28;20038;-69
2022/09/12 07:19:36;;;;;;;36.58;24.25;;;15.50;99.90;;;;;;5033281;28;20028;-67
2022/09/12 07:22:03;;;;;;;40.63;24.73;;;15.50;99.90;;;;;;5038581;28;20421;-72
2022/09/12 07:24:28;;;;;;;35.92;26.15;;;15.50;99.90;;;;;;5034052;28;20037;-68
2022/09/12 07:26:54;;;;;;;42.63;29.98;;;15.60;99.90;;;;;;5027807;28;20033;-71
2022/09/12 07:29:20;;;;;;;40.78;27.48;;;15.50;99.90;;;;;;5033324;28;20018;-66
2022/09/12 07:31:46;;;;;;;37.65;28.25;;;15.50;99.90;;;;;;5033975;28;20032;-67
2022/09/12 07:34:12;;;;;;;44.47;27.65;;;15.50;99.90;;;;;;5033482;28;20515;-67
2022/09/12 07:36:38;;;;;;;38.97;26.70;;;15.60;99.90;;;;;;5034309;28;20025;-69
2022/09/12 07:39:04;;;;;;;43.20;27.40;;;15.60;99.90;;;;;;5033190;28;20030;-68
2022/09/12 07:41:32;;;;;;;40.97;28.30;;;15.70;99.90;;;;;;5031602;28;20033;-67
2022/09/12 07:44:00;;;;;;;46.88;28.13;;;15.70;99.90;;;;;;5032821;28;20359;-68
2022/09/12 07:46:28;;;;;;;40.25;27.90;;;15.70;99.90;;;;;;5033549;28;20097;-67
2022/09/12 07:48:58;;;;;;;37.63;25.27;;;15.80;99.90;;;;;;5033529;28;20030;-67
2022/09/12 07:51:26;;;;;;;40.33;26.67;;;15.90;99.90;;;;;;5033431;28;20124;-67
2022/09/12 07:53:52;;;;;;;44.45;29.85;;;16.00;99.90;;;;;;5006885;28;20038;-67
2022/09/12 07:56:19;;;;;;;39.83;25.70;;;16.10;99.90;;;;;;5022604;28;20030;-67
2022/09/12 07:58:44;;;;;;;42.38;27.80;;;16.20;99.90;;;;;;5029055;28;20141;-67
2022/09/12 08:01:12;;;;;;;43.35;28.05;;;16.20;99.90;;;;;;5040537;28;20068;-67
2022/09/12 08:03:42;;;;;;;40.25;27.33;;;16.40;99.90;;;;;;5049084;28;20029;-67
2022/09/12 08:06:10;;;;;;;35.00;24.08;;;16.50;99.90;;;;;;5032490;28;20021;-72
2022/09/12 08:08:36;;;;;;;34.33;24.48;;;16.60;99.90;;;;;;5030853;28;20022;-68
2022/09/12 08:11:04;;;;;;;31.70;22.60;;;16.70;99.90;;;;;;5042518;28;20035;-67
2022/09/12 08:13:31;;;;;;;34.30;23.35;;;16.90;99.90;;;;;;5047515;28;20082;-68
2022/09/12 08:15:58;;;;;;;37.80;24.17;;;17.00;99.90;;;;;;5035293;28;20033;-67
2022/09/12 08:18:25;;;;;;;31.52;21.98;;;17.20;99.90;;;;;;5044962;28;20385;-67
2022/09/12 08:20:58;;;;;;;29.83;22.35;;;17.20;99.90;;;;;;5043047;28;20040;-67
2022/09/12 08:23:24;;;;;;;28.50;21.25;;;17.40;99.90;;;;;;5032155;28;20393;-67
2022/09/12 08:25:54;;;;;;;30.70;21.90;;;17.50;99.90;;;;;;5048011;28;20409;-69
2022/09/12 08:28:19;;;;;;;30.92;21.08;;;17.70;99.90;;;;;;5037751;28;20029;-68
2022/09/12 08:30:45;;;;;;;29.52;22.30;;;17.70;99.90;;;;;;5020875;28;20036;-68
2022/09/12 08:33:11;;;;;;;30.90;22.27;;;17.90;99.90;;;;;;5026019;28;20034;-68
2022/09/12 08:35:36;;;;;;;29.40;21.80;;;17.90;99.90;;;;;;5028906;28;20035;-70
2022/09/12 08:38:02;;;;;;;27.60;19.92;;;18.00;99.90;;;;;;5049017;28;20466;-69
2022/09/12 08:40:27;;;;;;;23.33;18.70;;;18.10;99.90;;;;;;5032600;28;20025;-69
2022/09/12 08:43:17;;;;;;;30.88;20.42;;;18.20;99.90;;;;;;5029745;28;20037;-67
2022/09/12 08:45:53;;;;;;;30.02;18.48;;;18.30;99.90;;;;;;5034503;28;20101;-68
2022/09/12 08:48:18;;;;;;;26.08;18.95;;;18.40;99.90;;;;;;5045185;28;20018;-68
2022/09/12 08:50:46;;;;;;;27.73;20.83;;;18.50;99.90;;;;;;5040604;28;20032;-68
2022/09/12 08:53:20;;;;;;;26.33;18.88;;;18.60;99.90;;;;;;5039695;28;20028;-69
2022/09/12 08:55:55;;;;;;;23.45;17.10;;;18.60;99.90;;;;;;5043103;28;20104;-68
2022/09/12 08:58:23;;;;;;;22.52;17.42;;;18.80;99.90;;;;;;5038186;28;20021;-67
2022/09/12 09:01:16;;;;;;;24.70;17.65;;;18.90;99.90;;;;;;5041933;28;20549;-67
2022/09/12 09:03:45;;;;;;;;;;;19.00;99.90;;;;;;5036388;28;20036;-69
2022/09/12 09:06:35;;;;;;;23.77;17.45;;;19.10;99.90;;;;;;5047502;28;19905;-69
2022/09/12 09:09:12;;;;;;;19.60;14.52;;;19.30;99.90;;;;;;5043023;28;20035;-69
2022/09/12 09:11:45;;;;;;;22.00;14.82;;;19.30;99.90;;;;;;5049951;28;20040;-68
2022/09/12 09:17:34;;;;;;;16.85;13.25;;;19.60;99.90;;;;;;5036077;28;20370;-69
2022/09/12 09:20:27;;;;;;;15.00;11.90;;;19.80;99.90;;;;;;5034674;28;20494;-72
2022/09/12 09:23:07;;;;;;;16.10;11.80;;;19.90;99.90;;;;;;5042067;28;20025;-68
2022/09/12 09:25:52;;;;;;;15.90;12.20;;;20.10;99.90;;;;;;5047274;28;20107;-69
2022/09/12 09:28:21;;;;;;;17.65;11.13;;;20.40;99.90;;;;;;5022354;28;20025;-68
2022/09/12 09:30:48;;;;;;;15.20;11.18;;;20.50;99.90;;;;;;5047627;28;20056;-67
2022/09/12 09:33:22;;;;;;;11.90;9.85;;;20.70;99.90;;;;;;5039024;28;20643;-68
2022/09/12 09:36:02;;;;;;;10.63;9.52;;;20.80;99.90;;;;;;5047273;28;20474;-69
2022/09/12 09:38:45;;;;;;;15.10;8.55;;;20.90;99.90;;;;;;5045574;28;20096;-70
2022/09/12 09:41:17;;;;;;;8.88;7.97;;;21.20;99.90;;;;;;5043781;28;20032;-71
2022/09/12 09:43:44;;;;;;;9.45;8.45;;;21.20;99.90;;;;;;5035435;28;20033;-68
2022/09/12 09:46:10;;;;;;;8.25;7.45;;;21.20;99.90;;;;;;5046936;28;20040;-68
2022/09/12 09:48:40;;;;;;;7.95;7.15;;;21.40;99.90;;;;;;5033892;28;20117;-67
2022/09/12 09:51:08;;;;;;;9.50;6.95;;;21.40;99.90;;;;;;5041709;28;20055;-67
2022/09/12 09:53:50;;;;;;;7.00;6.30;;;21.50;99.90;;;;;;5034702;28;20428;-68
2022/09/12 09:56:39;;;;;;;9.70;6.82;;;21.70;99.90;;;;;;5028175;28;20038;-68
2022/09/12 09:59:26;;;;;;;6.95;5.30;;;22.00;99.90;;;;;;5041935;28;20408;-67
2022/09/12 10:01:53;;;;;;;7.75;6.40;;;22.10;99.90;;;;;;5033575;28;20044;-67
2022/09/12 10:04:28;;;;;;;8.50;6.82;;;22.20;99.90;;;;;;5036759;28;20369;-67
2022/09/12 10:07:03;;;;;;;6.93;6.15;;;22.20;99.90;;;;;;5035028;28;20042;-68
2022/09/12 10:09:34;;;;;;;6.53;5.97;;;22.40;99.90;;;;;;5024201;28;20111;-69
2022/09/12 10:12:19;;;;;;;8.90;5.30;;;22.60;99.90;;;;;;5037038;28;20064;-71
2022/09/12 10:15:14;;;;;;;6.97;5.28;;;22.70;99.90;;;;;;5032498;28;20031;-72
2022/09/12 10:17:45;;;;;;;6.30;5.70;;;22.60;99.90;;;;;;5029790;28;20036;-69
2022/09/12 10:20:34;;;;;;;7.72;4.60;;;22.70;99.90;;;;;;5036916;28;20029;-69
2022/09/12 10:23:02;;;;;;;6.18;5.43;;;23.00;99.90;;;;;;5044027;28;20100;-68
2022/09/12 10:25:28;;;;;;;5.72;5.30;;;23.00;99.90;;;;;;5049984;28;20033;-68
2022/09/12 10:27:58;;;;;;;6.57;5.10;;;23.10;99.90;;;;;;5038164;28;20099;-69
2022/09/12 10:30:27;;;;;;;7.07;5.43;;;23.10;99.90;;;;;;5048144;28;20021;-68
2022/09/12 10:33:05;;;;;;;7.43;5.20;;;23.10;99.90;;;;;;5044640;28;20024;-69
2022/09/12 10:35:43;;;;;;;7.57;4.70;;;23.10;99.90;;;;;;5041740;28;20025;-69
2022/09/12 10:38:22;;;;;;;5.38;4.90;;;23.30;99.90;;;;;;5027548;28;20555;-69
2022/09/12 10:41:00;;;;;;;6.03;4.93;;;23.50;99.90;;;;;;5044942;28;20045;-70
2022/09/12 10:43:37;;;;;;;5.25;4.35;;;23.50;99.90;;;;;;5048262;28;20053;-69
2022/09/12 10:46:15;;;;;;;5.35;4.47;;;23.60;99.90;;;;;;5037526;28;20505;-68
2022/09/12 10:48:42;;;;;;;5.15;4.75;;;23.60;99.90;;;;;;5046374;28;20474;-69
2022/09/12 10:51:25;;;;;;;5.93;4.25;;;23.30;99.90;;;;;;5040674;28;20045;-68
2022/09/12 10:53:53;;;;;;;4.63;4.18;;;23.60;99.90;;;;;;5041350;28;20025;-69
2022/09/12 10:56:22;;;;;;;4.70;4.30;;;23.40;99.90;;;;;;5049245;28;20017;-69
2022/09/12 10:59:00;;;;;;;6.72;5.72;;;23.50;99.90;;;;;;5042595;28;20035;-68
2022/09/12 11:01:34;;;;;;;7.70;4.63;;;23.60;99.90;;;;;;5039290;28;20378;-69
2022/09/12 11:04:18;;;;;;;5.20;4.10;;;23.80;99.90;;;;;;5047105;28;20033;-68
2022/09/12 11:07:28;;;;;;;4.13;3.50;;;24.00;99.90;;;;;;5040959;28;20127;-68
2022/09/12 11:10:20;;;;;;;4.38;3.90;;;24.30;99.90;;;;;;5027646;28;20076;-70
2022/09/12 11:13:07;;;;;;;7.13;3.65;;;24.40;99.90;;;;;;5052246;28;20025;-69
2022/09/12 11:16:03;;;;;;;3.75;3.45;;;24.50;99.90;;;;;;5050537;28;20051;-70
2022/09/12 11:19:03;;;;;;;4.45;3.60;;;24.60;99.90;;;;;;5029650;28;20104;-69
2022/09/12 11:21:44;;;;;;;5.43;4.00;;;24.40;99.90;;;;;;5038771;28;20431;-69
2022/09/12 11:24:35;;;;;;;3.83;3.53;;;24.50;99.90;;;;;;5030494;28;20028;-70
2022/09/12 11:27:20;;;;;;;3.45;3.15;;;24.50;99.90;;;;;;5042608;28;20032;-69
2022/09/12 11:29:49;;;;;;;3.08;2.60;;;24.60;99.90;;;;;;5048475;28;20473;-69
2022/09/12 11:32:41;;;;;;;3.63;3.30;;;24.50;99.90;;;;;;5038687;28;20017;-68
2022/09/12 11:35:16;;;;;;;3.83;3.10;;;24.60;99.90;;;;;;5041722;28;20482;-69
2022/09/12 11:38:00;;;;;;;3.65;3.30;;;24.70;99.90;;;;;;5050358;28;20021;-68
2022/09/12 11:40:38;;;;;;;3.55;3.13;;;24.70;99.90;;;;;;5039135;28;20119;-69
2022/09/12 11:43:19;;;;;;;3.75;3.38;;;24.70;99.90;;;;;;5050651;28;20033;-69
2022/09/12 11:45:46;;;;;;;3.50;3.20;;;24.90;99.90;;;;;;5046959;28;20029;-69
2022/09/12 11:48:47;;;;;;;3.58;3.38;;;24.70;99.90;;;;;;5038017;28;20021;-69
2022/09/12 11:51:18;;;;;;;4.15;3.63;;;24.80;99.90;;;;;;5036547;28;20068;-68
2022/09/12 11:53:53;;;;;;;4.25;2.80;;;25.00;99.90;;;;;;5034785;28;20483;-68
2022/09/12 11:56:19;;;;;;;4.15;3.72;;;25.10;99.90;;;;;;5038510;28;20024;-68
2022/09/12 11:59:01;;;;;;;10.50;3.30;;;25.30;99.90;;;;;;5037310;28;20037;-69
2022/09/12 12:01:34;;;;;;;4.32;2.78;;;25.30;99.90;;;;;;5036088;28;20029;-69
2022/09/12 12:04:06;;;;;;;3.00;2.80;;;25.20;99.90;;;;;;5033300;28;20076;-69
2022/09/12 12:07:06;;;;;;;3.83;3.13;;;25.30;99.90;;;;;;5033360;28;20034;-68
2022/09/12 12:09:33;;;;;;;3.22;2.92;;;25.40;99.90;;;;;;5034211;28;20022;-68
2022/09/12 12:12:05;;;;;;;4.50;3.20;;;25.40;99.90;;;;;;5031019;28;20079;-70
2022/09/12 12:14:43;;;;;;;3.92;2.88;;;25.50;99.90;;;;;;5028920;28;20018;-68
2022/09/12 12:17:18;;;;;;;19.30;3.60;;;25.60;99.90;;;;;;5031019;28;20652;-68
2022/09/12 12:19:45;;;;;;;3.05;2.20;;;25.70;99.90;;;;;;5031469;28;20097;-69
2022/09/12 12:22:15;;;;;;;4.82;2.60;;;25.60;99.90;;;;;;5032881;28;20036;-69
2022/09/12 12:25:13;;;;;;;3.40;2.53;;;25.70;99.90;;;;;;5039687;28;20037;-68
2022/09/12 12:27:47;;;;;;;4.35;2.30;;;25.90;99.90;;;;;;5019340;28;20032;-69
2022/09/12 12:30:28;;;;;;;2.88;2.67;;;25.80;99.90;;;;;;5020389;28;20071;-68
2022/09/12 12:33:05;;;;;;;2.63;2.42;;;25.60;99.90;;;;;;5026506;28;20678;-68
2022/09/12 12:35:40;;;;;;;3.63;2.63;;;25.90;99.90;;;;;;5026670;28;20028;-68
2022/09/12 12:38:45;;;;;;;3.60;2.80;;;25.80;99.90;;;;;;5032315;28;20017;-69
2022/09/12 12:41:16;;;;;;;4.90;2.55;;;25.60;99.90;;;;;;5065674;28;20044;-69
2022/09/12 12:43:43;;;;;;;2.67;2.47;;;25.50;99.90;;;;;;5065122;28;20035;-69
2022/09/12 12:46:17;;;;;;;2.33;2.13;;;25.50;99.90;;;;;;5048922;28;20041;-70
2022/09/12 12:48:48;;;;;;;4.30;2.67;;;25.50;99.90;;;;;;5030994;28;20025;-68
2022/09/12 12:51:29;;;;;;;3.20;2.55;;;25.30;99.90;;;;;;5029048;28;20104;-69
2022/09/12 12:53:57;;;;;;;2.70;2.50;;;25.40;99.90;;;;;;5033060;28;20052;-69
2022/09/12 12:56:37;;;;;;;6.10;2.80;;;25.30;99.90;;;;;;5030888;28;20271;-67
2022/09/12 12:59:16;;;;;;;2.58;2.38;;;25.30;99.90;;;;;;5025993;28;20475;-67
2022/09/12 13:01:53;;;;;;;2.42;2.33;;;25.00;99.90;;;;;;5029695;28;20440;-68